»·PEaware :: AAL6295 KABQ-KLAS

AAL6295 :: KABQ-KLAS

FLIGHT INFORMATION

Flight Status: Arrived
Operator:
American Airlines
More flights by this operator :: More flights under this callsign
Pilot: Antonio A. (14008)
Aircraft: CANADAIR CL-600 CRJ-700
(CRJ7)
More flights by this aircraft type
Origin: KABQ Albuquerque Intl Sunport
United States
Destination: KLAS McCarran Intl
United States
More flights between these airports :: More routes between these airports
Route: +RDRNR3 GUP PGS TYSSN5
File this flight plan on PilotEdge
Remarks: aal6295 is / L Random failures set to 5%
Altitude:
(Current/Filed)
340ft
Speed:
(Current/Filed)
285kts
Departed: 29-Jul-18 01:52 PM
Arrived: 29-Jul-18 03:16 PM
Distance/Time
Traveled:
421nm/1:24
Distance/Time
To Go:
Arrived

Flight Plot

Page will automatically refresh every two minutes.

Flight plan parsing failed; only flown route is shown


Map Options




Map Legend


Flown Route
Filed Route
Departure Airport
Arrival Airport
Navaid (VOR, NDB)
Fix

Horizontal Profiles

Position Reports

Time Latitude Longitude Heading Altitude Ground
Speed
29-Jul-18 13:25 35.047806 -106.617700 178 5362ft 0kts
29-Jul-18 13:26 35.047806 -106.617700 178 5362ft 0kts
29-Jul-18 13:27 35.047806 -106.617700 178 5362ft 0kts
29-Jul-18 13:28 35.047806 -106.617700 178 5362ft 0kts
29-Jul-18 13:29 35.047806 -106.617700 178 5362ft 0kts
29-Jul-18 13:30 35.047806 -106.617700 178 5362ft 0kts
29-Jul-18 13:31 35.047806 -106.617700 178 5362ft 0kts
29-Jul-18 13:32 35.047806 -106.617700 178 5362ft 0kts
29-Jul-18 13:33 35.047806 -106.617700 178 5362ft 0kts
29-Jul-18 13:34 35.047806 -106.617700 178 5362ft 0kts
29-Jul-18 13:35 35.047806 -106.617700 178 5362ft 0kts
29-Jul-18 13:36 35.047806 -106.617700 178 5362ft 0kts
29-Jul-18 13:37 35.047806 -106.617700 178 5362ft 0kts
29-Jul-18 13:38 35.047806 -106.617700 178 5362ft 0kts
29-Jul-18 13:39 35.047806 -106.617700 178 5362ft 0kts
29-Jul-18 13:40 35.047806 -106.617700 178 5362ft 0kts
29-Jul-18 13:41 35.047806 -106.617700 178 5362ft 0kts
29-Jul-18 13:42 35.048441 -106.617614 206 5362ft 2kts
29-Jul-18 13:43 35.048508 -106.617569 210 5362ft 0kts
29-Jul-18 13:44 35.048505 -106.617571 210 5362ft 0kts
29-Jul-18 13:45 35.048503 -106.617572 210 5362ft 0kts
29-Jul-18 13:46 35.048501 -106.617574 210 5362ft 0kts
29-Jul-18 13:47 35.048498 -106.617576 210 5362ft 0kts
29-Jul-18 13:48 35.048304 -106.618064 268 5362ft 11kts
29-Jul-18 13:49 35.046368 -106.619578 180 5362ft 7kts
29-Jul-18 13:50 35.045989 -106.619579 180 5362ft 0kts
29-Jul-18 13:51 35.045039 -106.621268 188 5362ft 0kts
29-Jul-18 13:52 35.044646 -106.621143 143 5362ft 18kts
29-Jul-18 13:53 35.044251 -106.607332 90 5362ft 144kts
29-Jul-18 13:54 35.059132 -106.535655 28 6843ft 229kts
29-Jul-18 13:55 35.091076 -106.583653 254 8600ft 255kts
29-Jul-18 13:56 35.076651 -106.669930 270 10707ft 276kts
29-Jul-18 13:57 35.092598 -106.766804 286 12110ft 297kts
29-Jul-18 13:58 35.119068 -106.863639 286 13774ft 305kts
29-Jul-18 13:59 35.137319 -106.965747 277 15471ft 309kts
29-Jul-18 14:00 35.148329 -107.070405 276 17131ft 313kts
29-Jul-18 14:01 35.158240 -107.175985 276 18793ft 313kts
29-Jul-18 14:02 35.171124 -107.282562 280 20462ft 320kts
29-Jul-18 14:03 35.188333 -107.391301 283 22141ft 329kts
29-Jul-18 14:04 35.205836 -107.501836 285 23804ft 333kts
29-Jul-18 14:05 35.223812 -107.614302 286 25466ft 341kts
29-Jul-18 14:06 35.242434 -107.730925 286 27134ft 354kts
29-Jul-18 14:07 35.261352 -107.850441 287 28794ft 362kts
29-Jul-18 14:08 35.280795 -107.973635 286 30463ft 372kts
29-Jul-18 14:09 35.300252 -108.099033 291 32109ft 382kts
29-Jul-18 14:10 35.319959 -108.230659 292 33761ft 404kts
29-Jul-18 14:11 35.345430 -108.370460 285 34087ft 406kts
29-Jul-18 14:12 35.384382 -108.487654 282 34041ft 373kts
29-Jul-18 14:13 35.406852 -108.616893 279 34045ft 392kts
29-Jul-18 14:14 35.443399 -108.744406 282 34046ft 397kts
29-Jul-18 14:15 35.471116 -108.875636 278 34045ft 396kts
29-Jul-18 14:16 35.484231 -109.005738 274 34042ft 385kts
29-Jul-18 14:17 35.492731 -109.138616 273 34039ft 394kts
29-Jul-18 14:18 35.500022 -109.273257 273 34036ft 397kts
29-Jul-18 14:19 35.506790 -109.409051 273 34036ft 398kts
29-Jul-18 14:20 35.513277 -109.544667 273 34036ft 398kts
29-Jul-18 14:21 35.517761 -109.680391 269 34036ft 399kts
29-Jul-18 14:22 35.512949 -109.816672 268 34038ft 399kts
29-Jul-18 14:23 35.511582 -109.953043 271 34042ft 399kts
29-Jul-18 14:24 35.517215 -110.089176 273 34047ft 402kts
29-Jul-18 14:25 35.527593 -110.226164 274 34052ft 403kts
29-Jul-18 14:26 35.538170 -110.363775 273 34054ft 404kts
29-Jul-18 14:27 35.544812 -110.501756 271 34061ft 406kts
29-Jul-18 14:28 35.546822 -110.640257 270 34065ft 407kts
29-Jul-18 14:29 35.546121 -110.779301 270 34068ft 408kts
29-Jul-18 14:30 35.546710 -110.918970 271 34068ft 408kts
29-Jul-18 14:31 35.550051 -111.058893 272 34068ft 409kts
29-Jul-18 14:32 35.555507 -111.198625 273 34068ft 411kts
29-Jul-18 14:33 35.561507 -111.338511 274 34068ft 411kts
29-Jul-18 14:34 35.566300 -111.479754 273 34069ft 413kts
29-Jul-18 14:35 35.571458 -111.619539 272 32576ft 389kts
29-Jul-18 14:36 35.580803 -111.746345 269 30883ft 366kts
29-Jul-18 14:37 35.584556 -111.872732 266 29187ft 393kts
29-Jul-18 14:38 35.574672 -112.012021 269 27530ft 414kts
29-Jul-18 14:39 35.574870 -112.151885 278 25859ft 402kts
29-Jul-18 14:40 35.584279 -112.281580 282 24198ft 356kts
29-Jul-18 14:41 35.593623 -112.398798 279 22517ft 337kts
29-Jul-18 14:42 35.597747 -112.512270 275 20842ft 328kts
29-Jul-18 14:43 35.598711 -112.620912 275 20158ft 310kts
29-Jul-18 14:44 35.600606 -112.727531 277 20161ft 312kts
29-Jul-18 14:45 35.604368 -112.833930 277 20169ft 312kts
29-Jul-18 14:46 35.607720 -112.940370 277 20174ft 312kts
29-Jul-18 14:47 35.610441 -113.047239 277 20186ft 312kts
29-Jul-18 14:48 35.613528 -113.153804 277 20192ft 312kts
29-Jul-18 14:49 35.616659 -113.260481 277 20192ft 312kts
29-Jul-18 14:50 35.619732 -113.367558 278 20191ft 312kts
29-Jul-18 14:51 35.631032 -113.472305 279 20190ft 311kts
29-Jul-18 14:52 35.642225 -113.578762 285 18871ft 311kts
29-Jul-18 14:53 35.657541 -113.681865 283 17211ft 302kts
29-Jul-18 14:54 35.670297 -113.782880 281 15553ft 296kts
29-Jul-18 14:55 35.682033 -113.866204 294 14153ft 287kts
29-Jul-18 14:56 35.699652 -113.961760 280 12516ft 286kts
29-Jul-18 14:57 35.710432 -114.056329 280 12000ft 275kts
29-Jul-18 14:58 35.721903 -114.149966 281 11997ft 279kts
29-Jul-18 14:59 35.733629 -114.244891 280 11995ft 280kts
29-Jul-18 15:00 35.743555 -114.340139 278 11992ft 281kts
29-Jul-18 15:01 35.794633 -114.400938 337 10432ft 258kts
29-Jul-18 15:02 35.857151 -114.429974 340 9995ft 226kts
29-Jul-18 15:03 35.916758 -114.455437 338 9983ft 227kts
29-Jul-18 15:04 35.952992 -114.509686 274 9992ft 232kts
29-Jul-18 15:05 35.953342 -114.589307 271 9985ft 231kts
29-Jul-18 15:06 35.983831 -114.646614 346 9139ft 226kts
29-Jul-18 15:07 36.041625 -114.658535 326 7512ft 197kts
29-Jul-18 15:08 36.065407 -114.712918 296 6387ft 163kts
29-Jul-18 15:09 36.079375 -114.763765 262 5069ft 158kts
29-Jul-18 15:10 36.076576 -114.815481 267 4991ft 151kts
29-Jul-18 15:11 36.075287 -114.867574 271 5000ft 151kts
29-Jul-18 15:12 36.076200 -114.919569 267 5000ft 151kts
29-Jul-18 15:13 36.076408 -114.972956 270 4039ft 157kts
29-Jul-18 15:14 36.075199 -115.022989 272 3605ft 151kts
29-Jul-18 15:15 36.075520 -115.074556 265 2857ft 147kts
29-Jul-18 15:16 36.073765 -115.124588 268 2314ft 146kts
29-Jul-18 15:17 36.073913 -115.148707 288 2188ft 31kts
29-Jul-18 15:18 36.074771 -115.150621 305 2188ft 18kts
29-Jul-18 15:19 36.078761 -115.152900 16 2188ft 25kts
29-Jul-18 15:20 36.079582 -115.145671 4 2188ft 10kts
29-Jul-18 15:21 36.079826 -115.145874 323 2188ft 0kts
29-Jul-18 15:22 36.079826 -115.145874 323 2188ft 0kts

Navigation Log

Ident Type
Flight plan parsing failed, navigation log unavailable